Terminal Aerodrome Forecast
Issued by NWS

Home | Current Version | Previous Version | Text Only | Print | Product List | Glossary Off
Versions: 1 2 3 4 5 6 7 8 9 10 11 12 13 14 15 16 17 18

000
FTUS43 KBIS 291132
TAFMOT
TAF
KMOT 291132Z 2912/3012 22008KT 4SM FU BR SCT030 SCT250
      TEMPO 2912/2914 2SM FU BR BKN030
     FM291600 22011KT 5SM FU SCT250
     FM291900 19014G20KT P6SM FEW250
     FM300300 17011KT P6SM FEW250=

USA.gov is the U.S. government's official web portal to all federal, state and local government web resources and services.